sensor_id;sensor_type;location;lat;lon;timestamp;pressure;altitude;pressure_sealevel;temperature;humidity
38303;BME280;24103;42.454;27.400;2023-06-05T00:00:28;101205.25;;;13.78;100.00
38303;BME280;24103;42.454;27.400;2023-06-05T00:02:53;101202.41;;;13.95;100.00
38303;BME280;24103;42.454;27.400;2023-06-05T00:05:19;101195.41;;;13.94;100.00
38303;BME280;24103;42.454;27.400;2023-06-05T00:07:45;101204.84;;;13.84;100.00
38303;BME280;24103;42.454;27.400;2023-06-05T00:10:10;101198.06;;;13.94;100.00
38303;BME280;24103;42.454;27.400;2023-06-05T00:12:36;101197.69;;;13.86;100.00
38303;BME280;24103;42.454;27.400;2023-06-05T00:15:03;101191.41;;;14.01;100.00
38303;BME280;24103;42.454;27.400;2023-06-05T00:17:30;101184.31;;;13.88;100.00
38303;BME280;24103;42.454;27.400;2023-06-05T00:19:56;101192.84;;;13.93;100.00
38303;BME280;24103;42.454;27.400;2023-06-05T00:22:25;101196.72;;;13.87;100.00
38303;BME280;24103;42.454;27.400;2023-06-05T00:24:51;101196.34;;;13.93;100.00
38303;BME280;24103;42.454;27.400;2023-06-05T00:27:16;101196.44;;;13.92;100.00
38303;BME280;24103;42.454;27.400;2023-06-05T00:29:42;101198.78;;;13.82;100.00
38303;BME280;24103;42.454;27.400;2023-06-05T00:32:07;101197.84;;;13.69;100.00
38303;BME280;24103;42.454;27.400;2023-06-05T00:34:33;101197.00;;;13.68;100.00
38303;BME280;24103;42.454;27.400;2023-06-05T00:36:58;101195.94;;;13.56;100.00
38303;BME280;24103;42.454;27.400;2023-06-05T00:39:24;101190.63;;;13.56;100.00
38303;BME280;24103;42.454;27.400;2023-06-05T00:41:50;101184.72;;;13.51;100.00
38303;BME280;24103;42.454;27.400;2023-06-05T00:44:17;101189.09;;;13.52;100.00
38303;BME280;24103;42.454;27.400;2023-06-05T00:46:43;101186.59;;;13.35;100.00
38303;BME280;24103;42.454;27.400;2023-06-05T00:49:09;101184.03;;;13.33;100.00
38303;BME280;24103;42.454;27.400;2023-06-05T00:51:35;101183.22;;;13.31;100.00
38303;BME280;24103;42.454;27.400;2023-06-05T00:54:01;101172.28;;;13.37;100.00
38303;BME280;24103;42.454;27.400;2023-06-05T00:56:27;101172.09;;;13.40;100.00
38303;BME280;24103;42.454;27.400;2023-06-05T00:58:53;101177.59;;;13.37;100.00
38303;BME280;24103;42.454;27.400;2023-06-05T01:01:20;101179.66;;;13.32;100.00
38303;BME280;24103;42.454;27.400;2023-06-05T01:03:50;101185.47;;;13.39;100.00
38303;BME280;24103;42.454;27.400;2023-06-05T01:06:16;101175.03;;;13.36;100.00
38303;BME280;24103;42.454;27.400;2023-06-05T01:08:44;101166.97;;;13.37;100.00
38303;BME280;24103;42.454;27.400;2023-06-05T01:11:25;101175.88;;;13.36;100.00
38303;BME280;24103;42.454;27.400;2023-06-05T01:13:58;101182.31;;;13.32;100.00
38303;BME280;24103;42.454;27.400;2023-06-05T01:16:28;101183.41;;;13.28;100.00
38303;BME280;24103;42.454;27.400;2023-06-05T01:19:00;101174.75;;;13.40;100.00
38303;BME280;24103;42.454;27.400;2023-06-05T01:21:31;101187.09;;;13.56;100.00
38303;BME280;24103;42.454;27.400;2023-06-05T01:23:58;101182.06;;;13.51;100.00
38303;BME280;24103;42.454;27.400;2023-06-05T01:26:30;101178.56;;;13.51;100.00
38303;BME280;24103;42.454;27.400;2023-06-05T01:29:00;101187.75;;;13.45;100.00
38303;BME280;24103;42.454;27.400;2023-06-05T01:31:28;101181.88;;;13.40;100.00
38303;BME280;24103;42.454;27.400;2023-06-05T01:33:59;101183.06;;;13.34;100.00
38303;BME280;24103;42.454;27.400;2023-06-05T01:36:28;101185.81;;;13.33;100.00
38303;BME280;24103;42.454;27.400;2023-06-05T01:38:54;101196.47;;;13.31;100.00
38303;BME280;24103;42.454;27.400;2023-06-05T01:41:22;101199.69;;;13.22;100.00
38303;BME280;24103;42.454;27.400;2023-06-05T01:43:48;101200.91;;;13.16;100.00
38303;BME280;24103;42.454;27.400;2023-06-05T01:46:18;101208.19;;;13.13;100.00
38303;BME280;24103;42.454;27.400;2023-06-05T01:48:45;101200.50;;;13.08;100.00
38303;BME280;24103;42.454;27.400;2023-06-05T01:51:10;101196.91;;;13.09;100.00
38303;BME280;24103;42.454;27.400;2023-06-05T01:53:36;101200.53;;;13.22;100.00
38303;BME280;24103;42.454;27.400;2023-06-05T01:56:01;101199.13;;;13.17;100.00
38303;BME280;24103;42.454;27.400;2023-06-05T01:58:28;101207.25;;;13.14;100.00
38303;BME280;24103;42.454;27.400;2023-06-05T02:00:54;101206.50;;;13.12;100.00
38303;BME280;24103;42.454;27.400;2023-06-05T02:03:22;101196.06;;;13.08;100.00
38303;BME280;24103;42.454;27.400;2023-06-05T02:05:48;101202.22;;;13.09;100.00
38303;BME280;24103;42.454;27.400;2023-06-05T02:08:14;101191.50;;;13.11;100.00
38303;BME280;24103;42.454;27.400;2023-06-05T02:10:45;101192.53;;;13.08;100.00
38303;BME280;24103;42.454;27.400;2023-06-05T02:13:10;101191.09;;;13.02;100.00
38303;BME280;24103;42.454;27.400;2023-06-05T02:15:36;101202.06;;;12.96;100.00
38303;BME280;24103;42.454;27.400;2023-06-05T02:18:03;101200.63;;;12.90;100.00
38303;BME280;24103;42.454;27.400;2023-06-05T02:20:30;101195.75;;;12.83;100.00
38303;BME280;24103;42.454;27.400;2023-06-05T02:22:56;101194.22;;;12.79;100.00
38303;BME280;24103;42.454;27.400;2023-06-05T02:25:22;101194.66;;;12.71;100.00
38303;BME280;24103;42.454;27.400;2023-06-05T02:27:51;101187.28;;;12.60;100.00
38303;BME280;24103;42.454;27.400;2023-06-05T02:30:16;101192.25;;;12.50;100.00
38303;BME280;24103;42.454;27.400;2023-06-05T02:32:42;101182.78;;;12.46;100.00
38303;BME280;24103;42.454;27.400;2023-06-05T02:35:10;101187.38;;;12.43;100.00
38303;BME280;24103;42.454;27.400;2023-06-05T02:37:36;101186.63;;;12.41;100.00
38303;BME280;24103;42.454;27.400;2023-06-05T02:40:05;101189.00;;;12.45;100.00
38303;BME280;24103;42.454;27.400;2023-06-05T02:42:34;101176.78;;;12.43;100.00
38303;BME280;24103;42.454;27.400;2023-06-05T02:45:00;101177.63;;;12.43;100.00
38303;BME280;24103;42.454;27.400;2023-06-05T02:47:26;101182.44;;;12.52;100.00
38303;BME280;24103;42.454;27.400;2023-06-05T02:49:51;101191.31;;;12.67;100.00
38303;BME280;24103;42.454;27.400;2023-06-05T02:52:17;101203.28;;;12.75;100.00
38303;BME280;24103;42.454;27.400;2023-06-05T02:54:42;101205.94;;;12.75;100.00
38303;BME280;24103;42.454;27.400;2023-06-05T02:57:08;101205.75;;;12.78;100.00
38303;BME280;24103;42.454;27.400;2023-06-05T02:59:34;101209.00;;;12.83;100.00
38303;BME280;24103;42.454;27.400;2023-06-05T03:02:08;101203.34;;;12.89;100.00
38303;BME280;24103;42.454;27.400;2023-06-05T03:04:33;101211.59;;;13.15;100.00
38303;BME280;24103;42.454;27.400;2023-06-05T03:07:00;101211.25;;;13.51;100.00
38303;BME280;24103;42.454;27.400;2023-06-05T03:09:29;101202.97;;;14.00;100.00
38303;BME280;24103;42.454;27.400;2023-06-05T03:11:58;101207.22;;;14.88;100.00
38303;BME280;24103;42.454;27.400;2023-06-05T03:14:24;101207.63;;;16.13;100.00
38303;BME280;24103;42.454;27.400;2023-06-05T03:16:51;101203.19;;;17.47;100.00
38303;BME280;24103;42.454;27.400;2023-06-05T03:19:19;101194.03;;;18.86;100.00
38303;BME280;24103;42.454;27.400;2023-06-05T03:21:44;101180.44;;;19.94;100.00
38303;BME280;24103;42.454;27.400;2023-06-05T03:24:14;101165.56;;;21.20;97.76
38303;BME280;24103;42.454;27.400;2023-06-05T03:26:43;101150.16;;;21.79;85.53
38303;BME280;24103;42.454;27.400;2023-06-05T03:29:12;101156.22;;;22.19;80.27
38303;BME280;24103;42.454;27.400;2023-06-05T03:31:37;101147.09;;;22.57;69.97
38303;BME280;24103;42.454;27.400;2023-06-05T03:34:03;101137.75;;;23.24;65.04
38303;BME280;24103;42.454;27.400;2023-06-05T03:36:30;101113.53;;;24.52;59.33
38303;BME280;24103;42.454;27.400;2023-06-05T03:38:56;101101.34;;;25.63;52.48
38303;BME280;24103;42.454;27.400;2023-06-05T03:41:23;101087.13;;;26.63;47.74
38303;BME280;24103;42.454;27.400;2023-06-05T03:43:48;101075.22;;;27.85;44.47
38303;BME280;24103;42.454;27.400;2023-06-05T03:46:16;101047.38;;;29.34;39.39
38303;BME280;24103;42.454;27.400;2023-06-05T03:48:46;101043.19;;;30.41;37.69
38303;BME280;24103;42.454;27.400;2023-06-05T03:51:12;101037.22;;;31.51;36.34
38303;BME280;24103;42.454;27.400;2023-06-05T03:53:38;101020.69;;;32.99;33.99
38303;BME280;24103;42.454;27.400;2023-06-05T03:56:05;101022.72;;;33.96;32.14
38303;BME280;24103;42.454;27.400;2023-06-05T03:58:32;101023.25;;;34.59;30.02
38303;BME280;24103;42.454;27.400;2023-06-05T04:00:57;101022.84;;;35.50;29.23
38303;BME280;24103;42.454;27.400;2023-06-05T04:03:23;101021.59;;;36.78;27.65
38303;BME280;24103;42.454;27.400;2023-06-05T04:05:48;101019.06;;;37.76;26.48
38303;BME280;24103;42.454;27.400;2023-06-05T04:08:14;101019.53;;;38.23;25.12
38303;BME280;24103;42.454;27.400;2023-06-05T04:10:40;101015.50;;;38.35;24.56
38303;BME280;24103;42.454;27.400;2023-06-05T04:13:05;101010.59;;;38.43;23.89
38303;BME280;24103;42.454;27.400;2023-06-05T04:15:31;101012.88;;;38.94;22.99
38303;BME280;24103;42.454;27.400;2023-06-05T04:17:57;101026.13;;;39.39;22.67
38303;BME280;24103;42.454;27.400;2023-06-05T04:20:23;101023.22;;;39.82;22.22
38303;BME280;24103;42.454;27.400;2023-06-05T04:22:49;101019.97;;;40.06;21.90
38303;BME280;24103;42.454;27.400;2023-06-05T04:25:15;101030.22;;;40.10;21.72
38303;BME280;24103;42.454;27.400;2023-06-05T04:27:42;101021.88;;;40.82;20.76
38303;BME280;24103;42.454;27.400;2023-06-05T04:30:09;101007.91;;;41.23;19.47
38303;BME280;24103;42.454;27.400;2023-06-05T04:32:36;101008.16;;;41.37;19.44
38303;BME280;24103;42.454;27.400;2023-06-05T04:35:04;101017.41;;;41.07;20.01
38303;BME280;24103;42.454;27.400;2023-06-05T04:37:31;101021.31;;;40.85;20.42
38303;BME280;24103;42.454;27.400;2023-06-05T04:39:57;101023.44;;;41.30;19.72
38303;BME280;24103;42.454;27.400;2023-06-05T04:42:24;101005.94;;;41.84;18.58
38303;BME280;24103;42.454;27.400;2023-06-05T04:44:56;101023.22;;;42.10;18.94
38303;BME280;24103;42.454;27.400;2023-06-05T04:47:22;101015.28;;;42.67;18.23
38303;BME280;24103;42.454;27.400;2023-06-05T04:49:47;101012.59;;;43.11;17.88
38303;BME280;24103;42.454;27.400;2023-06-05T04:52:17;101012.69;;;43.24;17.28
38303;BME280;24103;42.454;27.400;2023-06-05T04:54:42;101019.56;;;42.84;18.35
38303;BME280;24103;42.454;27.400;2023-06-05T04:57:09;101034.56;;;42.83;18.30
38303;BME280;24103;42.454;27.400;2023-06-05T04:59:36;101028.75;;;43.08;18.08
38303;BME280;24103;42.454;27.400;2023-06-05T05:02:02;101026.59;;;43.49;17.54
38303;BME280;24103;42.454;27.400;2023-06-05T05:04:28;101030.47;;;44.24;17.10
38303;BME280;24103;42.454;27.400;2023-06-05T05:06:54;101026.63;;;44.99;16.83
38303;BME280;24103;42.454;27.400;2023-06-05T05:09:19;101011.41;;;45.33;15.83
38303;BME280;24103;42.454;27.400;2023-06-05T05:11:45;101026.91;;;45.90;15.41
38303;BME280;24103;42.454;27.400;2023-06-05T05:14:10;101022.72;;;46.01;15.66
38303;BME280;24103;42.454;27.400;2023-06-05T05:16:36;101023.09;;;46.94;15.64
38303;BME280;24103;42.454;27.400;2023-06-05T05:19:01;101027.50;;;47.35;14.87
38303;BME280;24103;42.454;27.400;2023-06-05T05:21:27;101026.09;;;47.72;14.22
38303;BME280;24103;42.454;27.400;2023-06-05T05:23:53;101022.63;;;47.84;14.42
38303;BME280;24103;42.454;27.400;2023-06-05T05:26:18;101016.84;;;47.72;14.13
38303;BME280;24103;42.454;27.400;2023-06-05T05:28:44;101020.94;;;47.48;14.40
38303;BME280;24103;42.454;27.400;2023-06-05T05:31:10;101028.31;;;47.35;14.81
38303;BME280;24103;42.454;27.400;2023-06-05T05:33:35;101038.22;;;47.50;14.56
38303;BME280;24103;42.454;27.400;2023-06-05T05:36:01;101037.25;;;48.16;14.02
38303;BME280;24103;42.454;27.400;2023-06-05T05:38:27;101028.84;;;48.72;13.56
38303;BME280;24103;42.454;27.400;2023-06-05T05:40:53;101032.63;;;48.29;13.75
38303;BME280;24103;42.454;27.400;2023-06-05T05:43:19;101039.06;;;48.38;13.96
38303;BME280;24103;42.454;27.400;2023-06-05T05:45:45;101031.50;;;48.12;13.38
38303;BME280;24103;42.454;27.400;2023-06-05T05:48:10;101026.88;;;47.82;13.56
38303;BME280;24103;42.454;27.400;2023-06-05T05:50:36;101030.03;;;48.15;13.67
38303;BME280;24103;42.454;27.400;2023-06-05T05:53:02;101035.56;;;48.41;13.56
38303;BME280;24103;42.454;27.400;2023-06-05T05:55:28;101037.91;;;48.22;13.36
38303;BME280;24103;42.454;27.400;2023-06-05T05:57:54;101032.44;;;48.43;13.25
38303;BME280;24103;42.454;27.400;2023-06-05T06:00:20;101033.94;;;48.31;13.43
38303;BME280;24103;42.454;27.400;2023-06-05T06:02:45;101029.13;;;48.41;13.16
38303;BME280;24103;42.454;27.400;2023-06-05T06:05:12;101019.03;;;48.96;12.23
38303;BME280;24103;42.454;27.400;2023-06-05T06:07:38;101023.22;;;48.81;12.85
38303;BME280;24103;42.454;27.400;2023-06-05T06:10:06;101026.66;;;49.46;12.35
38303;BME280;24103;42.454;27.400;2023-06-05T06:12:32;101024.56;;;49.85;12.51
38303;BME280;24103;42.454;27.400;2023-06-05T06:14:58;101024.75;;;50.13;11.60
38303;BME280;24103;42.454;27.400;2023-06-05T06:17:23;101017.28;;;49.84;11.20
38303;BME280;24103;42.454;27.400;2023-06-05T06:19:49;101014.41;;;49.72;11.85
38303;BME280;24103;42.454;27.400;2023-06-05T06:22:15;101017.81;;;49.77;11.75
38303;BME280;24103;42.454;27.400;2023-06-05T06:24:43;101005.34;;;50.21;11.20
38303;BME280;24103;42.454;27.400;2023-06-05T06:27:09;101013.03;;;50.57;10.98
38303;BME280;24103;42.454;27.400;2023-06-05T06:29:47;101013.34;;;50.31;11.49
38303;BME280;24103;42.454;27.400;2023-06-05T06:32:12;101017.13;;;48.79;11.92
38303;BME280;24103;42.454;27.400;2023-06-05T06:34:38;101023.25;;;47.46;12.63
38303;BME280;24103;42.454;27.400;2023-06-05T06:37:04;101036.69;;;48.49;12.39
38303;BME280;24103;42.454;27.400;2023-06-05T06:39:29;101026.81;;;48.90;12.08
38303;BME280;24103;42.454;27.400;2023-06-05T06:41:56;101026.03;;;49.40;11.61
38303;BME280;24103;42.454;27.400;2023-06-05T06:44:23;101022.28;;;48.68;11.47
38303;BME280;24103;42.454;27.400;2023-06-05T06:46:48;101026.09;;;47.72;12.32
38303;BME280;24103;42.454;27.400;2023-06-05T06:49:14;101030.91;;;46.74;12.81
38303;BME280;24103;42.454;27.400;2023-06-05T06:51:39;101041.88;;;48.03;12.60
38303;BME280;24103;42.454;27.400;2023-06-05T06:54:05;101028.22;;;47.00;12.05
38303;BME280;24103;42.454;27.400;2023-06-05T06:56:30;101032.31;;;45.72;12.52
38303;BME280;24103;42.454;27.400;2023-06-05T06:58:56;101033.50;;;45.94;12.97
38303;BME280;24103;42.454;27.400;2023-06-05T07:01:21;101029.50;;;46.09;12.41
38303;BME280;24103;42.454;27.400;2023-06-05T07:03:49;101030.09;;;46.51;12.35
38303;BME280;24103;42.454;27.400;2023-06-05T07:06:14;101022.13;;;45.90;12.01
38303;BME280;24103;42.454;27.400;2023-06-05T07:08:40;101018.16;;;45.69;11.78
38303;BME280;24103;42.454;27.400;2023-06-05T07:11:06;101028.88;;;45.25;12.30
38303;BME280;24103;42.454;27.400;2023-06-05T07:13:31;101028.88;;;45.39;11.88
38303;BME280;24103;42.454;27.400;2023-06-05T07:15:57;101030.03;;;45.10;11.92
38303;BME280;24103;42.454;27.400;2023-06-05T07:18:23;101013.84;;;44.98;12.38
38303;BME280;24103;42.454;27.400;2023-06-05T07:20:48;101027.06;;;45.06;12.25
38303;BME280;24103;42.454;27.400;2023-06-05T07:23:17;101018.56;;;45.98;11.73
38303;BME280;24103;42.454;27.400;2023-06-05T07:25:44;101015.13;;;46.47;11.68
38303;BME280;24103;42.454;27.400;2023-06-05T07:28:10;101001.22;;;46.96;10.56
38303;BME280;24103;42.454;27.400;2023-06-05T07:30:40;101010.41;;;46.25;11.57
38303;BME280;24103;42.454;27.400;2023-06-05T07:33:08;101021.19;;;46.40;11.79
38303;BME280;24103;42.454;27.400;2023-06-05T07:35:34;101016.19;;;45.19;11.84
38303;BME280;24103;42.454;27.400;2023-06-05T07:38:00;101017.63;;;45.30;12.09
38303;BME280;24103;42.454;27.400;2023-06-05T07:40:26;101019.69;;;46.43;11.98
38303;BME280;24103;42.454;27.400;2023-06-05T07:42:52;101011.97;;;47.20;11.60
38303;BME280;24103;42.454;27.400;2023-06-05T07:45:17;101005.69;;;46.57;12.20
38303;BME280;24103;42.454;27.400;2023-06-05T07:47:43;101012.78;;;45.72;12.85
38303;BME280;24103;42.454;27.400;2023-06-05T07:50:09;101024.53;;;44.30;13.36
38303;BME280;24103;42.454;27.400;2023-06-05T07:52:36;101025.03;;;41.91;15.46
38303;BME280;24103;42.454;27.400;2023-06-05T07:55:02;101026.47;;;42.62;15.19
38303;BME280;24103;42.454;27.400;2023-06-05T07:57:28;101032.72;;;42.73;15.27
38303;BME280;24103;42.454;27.400;2023-06-05T07:59:53;101036.09;;;41.96;15.83
38303;BME280;24103;42.454;27.400;2023-06-05T08:02:20;101049.03;;;40.34;17.06
38303;BME280;24103;42.454;27.400;2023-06-05T08:04:46;101057.22;;;39.67;17.67
38303;BME280;24103;42.454;27.400;2023-06-05T08:07:11;101057.50;;;38.70;18.38
38303;BME280;24103;42.454;27.400;2023-06-05T08:09:37;101071.66;;;38.19;18.38
38303;BME280;24103;42.454;27.400;2023-06-05T08:12:04;101076.09;;;38.20;19.09
38303;BME280;24103;42.454;27.400;2023-06-05T08:14:29;101083.19;;;37.89;19.03
38303;BME280;24103;42.454;27.400;2023-06-05T08:16:55;101078.06;;;35.13;21.71
38303;BME280;24103;42.454;27.400;2023-06-05T08:19:21;101091.75;;;32.62;25.22
38303;BME280;24103;42.454;27.400;2023-06-05T08:21:51;101105.97;;;31.01;27.18
38303;BME280;24103;42.454;27.400;2023-06-05T08:24:19;101114.31;;;29.28;29.66
38303;BME280;24103;42.454;27.400;2023-06-05T08:26:45;101121.31;;;28.29;31.89
38303;BME280;24103;42.454;27.400;2023-06-05T08:29:11;101137.75;;;27.32;34.11
38303;BME280;24103;42.454;27.400;2023-06-05T08:31:37;101147.75;;;26.39;36.41
38303;BME280;24103;42.454;27.400;2023-06-05T08:34:04;101148.81;;;25.82;37.02
38303;BME280;24103;42.454;27.400;2023-06-05T08:36:29;101150.13;;;25.30;38.43
38303;BME280;24103;42.454;27.400;2023-06-05T08:39:00;101156.84;;;25.01;40.05
38303;BME280;24103;42.454;27.400;2023-06-05T08:41:29;101144.34;;;24.67;41.10
38303;BME280;24103;42.454;27.400;2023-06-05T08:43:56;101161.00;;;24.54;41.83
38303;BME280;24103;42.454;27.400;2023-06-05T08:46:21;101148.84;;;24.50;41.24
38303;BME280;24103;42.454;27.400;2023-06-05T08:48:48;101141.69;;;24.24;42.93
38303;BME280;24103;42.454;27.400;2023-06-05T08:51:18;101157.78;;;24.42;44.08
38303;BME280;24103;42.454;27.400;2023-06-05T08:54:04;101165.84;;;24.34;45.06
38303;BME280;24103;42.454;27.400;2023-06-05T08:56:39;101172.38;;;24.23;47.63
38303;BME280;24103;42.454;27.400;2023-06-05T08:59:05;101164.88;;;24.01;46.47
38303;BME280;24103;42.454;27.400;2023-06-05T09:01:31;101167.59;;;24.01;46.77
38303;BME280;24103;42.454;27.400;2023-06-05T09:04:02;101179.28;;;23.83;44.18
38303;BME280;24103;42.454;27.400;2023-06-05T09:06:28;101162.66;;;23.70;45.32
38303;BME280;24103;42.454;27.400;2023-06-05T09:08:54;101161.88;;;23.51;44.76
38303;BME280;24103;42.454;27.400;2023-06-05T09:11:30;101174.59;;;23.67;45.84
38303;BME280;24103;42.454;27.400;2023-06-05T09:13:57;101182.69;;;23.67;44.96
38303;BME280;24103;42.454;27.400;2023-06-05T09:16:41;101170.44;;;23.47;45.03
38303;BME280;24103;42.454;27.400;2023-06-05T09:19:08;101178.06;;;23.78;46.00
38303;BME280;24103;42.454;27.400;2023-06-05T09:21:35;101185.47;;;24.02;46.32
38303;BME280;24103;42.454;27.400;2023-06-05T09:24:17;101190.28;;;23.90;48.21
38303;BME280;24103;42.454;27.400;2023-06-05T09:26:53;101199.47;;;24.05;45.23
38303;BME280;24103;42.454;27.400;2023-06-05T09:29:25;101189.66;;;23.96;47.37
38303;BME280;24103;42.454;27.400;2023-06-05T09:31:56;101201.97;;;23.99;44.73
38303;BME280;24103;42.454;27.400;2023-06-05T09:34:27;101189.50;;;23.71;47.96
38303;BME280;24103;42.454;27.400;2023-06-05T09:36:53;101197.84;;;23.60;49.12
38303;BME280;24103;42.454;27.400;2023-06-05T09:39:20;101209.69;;;23.67;50.90
38303;BME280;24103;42.454;27.400;2023-06-05T09:41:48;101222.31;;;23.85;49.81
38303;BME280;24103;42.454;27.400;2023-06-05T09:44:15;101202.34;;;23.78;49.95
38303;BME280;24103;42.454;27.400;2023-06-05T09:46:58;101215.44;;;23.72;51.03
38303;BME280;24103;42.454;27.400;2023-06-05T09:49:32;101212.38;;;23.67;50.53
38303;BME280;24103;42.454;27.400;2023-06-05T09:51:59;101223.16;;;23.67;52.45
38303;BME280;24103;42.454;27.400;2023-06-05T09:54:27;101204.06;;;23.61;53.68
38303;BME280;24103;42.454;27.400;2023-06-05T09:56:57;101192.84;;;23.47;55.86
38303;BME280;24103;42.454;27.400;2023-06-05T09:59:27;101206.56;;;23.54;55.72
38303;BME280;24103;42.454;27.400;2023-06-05T10:01:54;101223.97;;;23.60;57.42
38303;BME280;24103;42.454;27.400;2023-06-05T10:04:23;101210.75;;;23.74;59.99
38303;BME280;24103;42.454;27.400;2023-06-05T10:06:51;101217.31;;;23.72;60.74
38303;BME280;24103;42.454;27.400;2023-06-05T10:09:18;101216.94;;;23.67;63.08
38303;BME280;24103;42.454;27.400;2023-06-05T10:11:48;101219.31;;;23.70;62.71
38303;BME280;24103;42.454;27.400;2023-06-05T10:14:14;101214.41;;;23.65;60.46
38303;BME280;24103;42.454;27.400;2023-06-05T10:16:41;101220.03;;;23.54;59.11
38303;BME280;24103;42.454;27.400;2023-06-05T10:19:08;101223.22;;;23.49;62.26
38303;BME280;24103;42.454;27.400;2023-06-05T10:21:34;101233.38;;;23.55;64.94
38303;BME280;24103;42.454;27.400;2023-06-05T10:24:11;101226.09;;;23.48;59.11
38303;BME280;24103;42.454;27.400;2023-06-05T10:30:25;101222.97;;;23.61;56.95
38303;BME280;24103;42.454;27.400;2023-06-05T10:35:55;101222.47;;;23.83;60.57
38303;BME280;24103;42.454;27.400;2023-06-05T10:38:29;101228.41;;;23.69;58.43
38303;BME280;24103;42.454;27.400;2023-06-05T10:40:57;101222.91;;;23.52;56.06
38303;BME280;24103;42.454;27.400;2023-06-05T10:46:35;101212.75;;;23.72;55.83
38303;BME280;24103;42.454;27.400;2023-06-05T10:51:34;101216.16;;;24.01;53.08
38303;BME280;24103;42.454;27.400;2023-06-05T10:54:07;101218.84;;;23.74;57.44
38303;BME280;24103;42.454;27.400;2023-06-05T10:59:36;101213.78;;;23.71;48.74
38303;BME280;24103;42.454;27.400;2023-06-05T11:15:10;101199.81;;;23.50;46.35
38303;BME280;24103;42.454;27.400;2023-06-05T11:17:41;101188.47;;;23.72;46.28
38303;BME280;24103;42.454;27.400;2023-06-05T11:20:48;101176.25;;;23.60;43.21
38303;BME280;24103;42.454;27.400;2023-06-05T11:27:47;101170.38;;;23.39;45.88
38303;BME280;24103;42.454;27.400;2023-06-05T11:30:17;101168.94;;;23.79;41.59
38303;BME280;24103;42.454;27.400;2023-06-05T11:32:44;101162.56;;;23.80;42.01
38303;BME280;24103;42.454;27.400;2023-06-05T11:35:10;101170.88;;;23.86;44.02
38303;BME280;24103;42.454;27.400;2023-06-05T11:37:38;101157.84;;;23.82;41.79
38303;BME280;24103;42.454;27.400;2023-06-05T11:40:08;101169.53;;;23.90;41.55
38303;BME280;24103;42.454;27.400;2023-06-05T11:42:38;101147.97;;;23.64;42.25
38303;BME280;24103;42.454;27.400;2023-06-05T11:45:17;101161.00;;;23.77;43.27
38303;BME280;24103;42.454;27.400;2023-06-05T11:48:04;101159.59;;;23.65;45.55
38303;BME280;24103;42.454;27.400;2023-06-05T11:50:31;101165.38;;;23.44;48.77
38303;BME280;24103;42.454;27.400;2023-06-05T11:53:04;101172.69;;;23.51;47.56
38303;BME280;24103;42.454;27.400;2023-06-05T11:55:31;101172.97;;;23.74;50.07
38303;BME280;24103;42.454;27.400;2023-06-05T11:58:09;101175.28;;;23.61;49.37
38303;BME280;24103;42.454;27.400;2023-06-05T12:00:36;101184.66;;;23.57;51.63
38303;BME280;24103;42.454;27.400;2023-06-05T12:03:02;101181.75;;;23.50;50.11
38303;BME280;24103;42.454;27.400;2023-06-05T12:05:28;101184.13;;;23.27;54.08
38303;BME280;24103;42.454;27.400;2023-06-05T12:07:53;101194.66;;;23.39;56.37
38303;BME280;24103;42.454;27.400;2023-06-05T12:10:33;101193.97;;;23.36;52.28
38303;BME280;24103;42.454;27.400;2023-06-05T12:13:03;101197.16;;;23.58;55.58
38303;BME280;24103;42.454;27.400;2023-06-05T12:15:29;101186.00;;;23.79;49.57
38303;BME280;24103;42.454;27.400;2023-06-05T12:17:56;101174.13;;;23.72;46.07
38303;BME280;24103;42.454;27.400;2023-06-05T12:20:22;101185.00;;;23.36;47.83
38303;BME280;24103;42.454;27.400;2023-06-05T12:22:49;101182.88;;;23.40;50.99
38303;BME280;24103;42.454;27.400;2023-06-05T12:25:18;101198.66;;;23.34;53.92
38303;BME280;24103;42.454;27.400;2023-06-05T12:27:44;101182.13;;;23.11;50.66
38303;BME280;24103;42.454;27.400;2023-06-05T12:30:13;101184.03;;;23.01;51.57
38303;BME280;24103;42.454;27.400;2023-06-05T12:32:40;101186.41;;;22.68;51.83
38303;BME280;24103;42.454;27.400;2023-06-05T12:35:21;101182.78;;;22.59;54.87
38303;BME280;24103;42.454;27.400;2023-06-05T12:37:48;101191.72;;;22.60;54.01
38303;BME280;24103;42.454;27.400;2023-06-05T12:40:15;101179.41;;;22.57;53.66
38303;BME280;24103;42.454;27.400;2023-06-05T12:42:46;101180.50;;;22.37;51.20
38303;BME280;24103;42.454;27.400;2023-06-05T12:45:12;101196.63;;;22.47;55.29
38303;BME280;24103;42.454;27.400;2023-06-05T12:47:39;101190.25;;;22.48;55.37
38303;BME280;24103;42.454;27.400;2023-06-05T12:50:07;101197.25;;;22.58;54.45
38303;BME280;24103;42.454;27.400;2023-06-05T12:52:33;101184.00;;;22.65;51.35
38303;BME280;24103;42.454;27.400;2023-06-05T12:54:59;101194.94;;;22.45;55.67
38303;BME280;24103;42.454;27.400;2023-06-05T12:57:25;101193.38;;;22.43;57.12
38303;BME280;24103;42.454;27.400;2023-06-05T12:59:52;101199.91;;;22.40;56.06
38303;BME280;24103;42.454;27.400;2023-06-05T13:02:19;101188.34;;;22.20;54.70
38303;BME280;24103;42.454;27.400;2023-06-05T13:04:45;101189.75;;;22.34;55.24
38303;BME280;24103;42.454;27.400;2023-06-05T13:07:11;101176.63;;;22.49;55.86
38303;BME280;24103;42.454;27.400;2023-06-05T13:09:37;101174.81;;;22.40;57.38
38303;BME280;24103;42.454;27.400;2023-06-05T13:12:03;101170.38;;;22.49;52.43